地図

経路データ

SID SEASON NUMBER BASIN SUBBASIN NAME ISO_TIME NATURE LAT LON WMO_WIND WMO_PRES WMO_AGENCY TRACK_TYPE DIST2LAND LANDFALL IFLAG USA_AGENCY USA_ATCF_ID USA_LAT USA_LON USA_RECORD USA_STATUS USA_WIND USA_PRES USA_SSHS USA_R34_NE USA_R34_SE USA_R34_SW USA_R34_NW USA_R50_NE USA_R50_SE USA_R50_SW USA_R50_NW USA_R64_NE USA_R64_SE USA_R64_SW USA_R64_NW USA_POCI USA_ROCI USA_RMW USA_EYE TOKYO_LAT TOKYO_LON TOKYO_GRADE TOKYO_WIND TOKYO_PRES TOKYO_R50_DIR TOKYO_R50_LONG TOKYO_R50_SHORT TOKYO_R30_DIR TOKYO_R30_LONG TOKYO_R30_SHORT TOKYO_LAND CMA_LAT CMA_LON CMA_CAT CMA_WIND CMA_PRES HKO_LAT HKO_LON HKO_CAT HKO_WIND HKO_PRES NEWDELHI_LAT NEWDELHI_LON NEWDELHI_GRADE NEWDELHI_WIND NEWDELHI_PRES NEWDELHI_CI NEWDELHI_DP NEWDELHI_POCI REUNION_LAT REUNION_LON REUNION_TYPE REUNION_WIND REUNION_PRES REUNION_TNUM REUNION_CI REUNION_RMW REUNION_R34_NE REUNION_R34_SE REUNION_R34_SW REUNION_R34_NW REUNION_R50_NE REUNION_R50_SE REUNION_R50_SW REUNION_R50_NW REUNION_R64_NE REUNION_R64_SE REUNION_R64_SW REUNION_R64_NW BOM_LAT BOM_LON BOM_TYPE BOM_WIND BOM_PRES BOM_TNUM BOM_CI BOM_RMW BOM_R34_NE BOM_R34_SE BOM_R34_SW BOM_R34_NW BOM_R50_NE BOM_R50_SE BOM_R50_SW BOM_R50_NW BOM_R64_NE BOM_R64_SE BOM_R64_SW BOM_R64_NW BOM_ROCI BOM_POCI BOM_EYE BOM_POS_METHOD BOM_PRES_METHOD NADI_LAT NADI_LON NADI_CAT NADI_WIND NADI_PRES WELLINGTON_LAT WELLINGTON_LON WELLINGTON_WIND WELLINGTON_PRES DS824_LAT DS824_LON DS824_STAGE DS824_WIND DS824_PRES TD9636_LAT TD9636_LON TD9636_STAGE TD9636_WIND TD9636_PRES TD9635_LAT TD9635_LON TD9635_WIND TD9635_PRES TD9635_ROCI NEUMANN_LAT NEUMANN_LON NEUMANN_CLASS NEUMANN_WIND NEUMANN_PRES MLC_LAT MLC_LON MLC_CLASS MLC_WIND MLC_PRES USA_GUST BOM_GUST BOM_GUST_PER REUNION_GUST REUNION_GUST_PER USA_SEAHGT USA_SEARAD_NE USA_SEARAD_SE USA_SEARAD_SW USA_SEARAD_NW STORM_SPEED STORM_DIR
1917228N16128 1917 34 WP MM NOT_NAMED 1917-08-15 21:00:00 NR 15.6000 128.000 main 431 375 __________O___ -1 15.6000 128.000 7 17 293
1917228N16128 1917 34 WP MM NOT_NAMED 1917-08-16 00:00:00 NR 15.9392 127.173 main 375 341 __________P___ -1 15.9392 127.173 7 17 293
1917228N16128 1917 34 WP MM NOT_NAMED 1917-08-16 03:00:00 NR 16.2713 126.385 main 342 322 __________P___ -1 16.2713 126.385 7 16 295
1917228N16128 1917 34 WP MM NOT_NAMED 1917-08-16 06:00:00 NR 16.5926 125.680 main 327 276 __________P___ -1 16.5926 125.680 7 14 297
1917228N16128 1917 34 WP MM NOT_NAMED 1917-08-16 09:00:00 NR 16.9000 125.100 main 276 234 __________O___ -1 16.9000 125.100 7 11 302
1917228N16128 1917 34 WP MM NOT_NAMED 1917-08-16 12:00:00 NR 17.1920 124.674 main 234 206 __________P___ -1 17.1920 124.674 7 9 310
1917228N16128 1917 34 WP MM NOT_NAMED 1917-08-16 15:00:00 NR 17.4708 124.376 main 209 192 __________P___ -1 17.4708 124.376 7 7 318
1917228N16128 1917 34 WP MM NOT_NAMED 1917-08-16 18:00:00 NR 17.7393 124.165 main 196 182 __________P___ -1 17.7393 124.165 7 6 326
1917228N16128 1917 34 WP MM NOT_NAMED 1917-08-16 21:00:00 NR 18.0000 124.000 main 182 158 __________O___ -1 18.0000 124.000 7 6 327
1917228N16128 1917 34 WP MM NOT_NAMED 1917-08-17 00:00:00 NR 18.2448 123.818 main 158 147 __________P___ -1 18.2448 123.818 7 6 327
1917228N16128 1917 34 WP MM NOT_NAMED 1917-08-17 03:00:00 NR 18.4847 123.669 main 148 130 __________P___ -1 18.4847 123.669 7 6 331
1917228N16128 1917 34 WP MM NOT_NAMED 1917-08-17 06:00:00 NR 18.7323 123.536 main 130 128 __________P___ -1 18.7323 123.536 7 6 333
1917228N16128 1917 34 WP MM NOT_NAMED 1917-08-17 09:00:00 NR 19.0000 123.400 main 133 131 __________O___ -1 19.0000 123.400 7 6 333
1917228N16128 1917 34 WP MM NOT_NAMED 1917-08-17 12:00:00 NR 19.3075 123.232 main 138 138 __________P___ -1 19.3075 123.232 7 7 333
1917228N16128 1917 34 WP MM NOT_NAMED 1917-08-17 15:00:00 NR 19.6350 123.057 main 158 158 __________P___ -1 19.6350 123.057 7 7 333
1917228N16128 1917 34 WP MM NOT_NAMED 1917-08-17 18:00:00 NR 19.9700 122.879 main 189 186 __________P___ -1 19.9700 122.879 7 7 333
1917228N16128 1917 34 WP MM NOT_NAMED 1917-08-17 21:00:00 NR 20.3000 122.700 main 216 216 __________O___ -1 20.3000 122.700 4 7 331
1917228N16128 1917 34 WP MM NOT_NAMED 1917-08-18 00:00:00 NR 20.5950 122.517 main 220 183 __________P___ -1 20.5950 122.517 4 7 330
1917228N16128 1917 34 WP MM NOT_NAMED 1917-08-18 03:00:00 NR 20.8850 122.335 main 183 155 __________P___ -1 20.8850 122.335 4 7 330
1917228N16128 1917 34 WP MM NOT_NAMED 1917-08-18 06:00:00 NR 21.1825 122.160 main 155 122 __________P___ -1 21.1825 122.160 4 7 333
1917228N16128 1917 34 WP MM NOT_NAMED 1917-08-18 09:00:00 NR 21.5000 122.000 main 122 103 __________O___ -1 21.5000 122.000 4 7 337
1917228N16128 1917 34 WP MM NOT_NAMED 1917-08-18 12:00:00 NR 21.8127 121.868 main 103 92 __________P___ -1 21.8127 121.868 4 7 340
1917228N16128 1917 34 WP MM NOT_NAMED 1917-08-18 15:00:00 NR 22.1524 121.749 main 82 60 __________P___ -1 22.1524 121.749 4 8 343
1917228N16128 1917 34 WP MM NOT_NAMED 1917-08-18 18:00:00 NR 22.5409 121.630 main 60 15 __________P___ -1 22.5409 121.630 4 9 345
1917228N16128 1917 34 WP MM NOT_NAMED 1917-08-18 21:00:00 NR 23.0000 121.500 main 15 0 __________O___ -1 23.0000 121.500 4 11 344
1917228N16128 1917 34 WP MM NOT_NAMED 1917-08-19 00:00:00 NR 23.5696 121.312 main 0 0 __________P___ -1 23.5696 121.312 4 13 344
1917228N16128 1917 34 WP MM NOT_NAMED 1917-08-19 03:00:00 NR 24.2053 121.114 main 0 0 __________P___ -1 24.2053 121.114 4 13 345
1917228N16128 1917 34 WP MM NOT_NAMED 1917-08-19 06:00:00 NR 24.8634 120.934 main 10 10 __________P___ -1 24.8634 120.934 4 13 348
1917228N16128 1917 34 WP MM NOT_NAMED 1917-08-19 09:00:00 NR 25.5000 120.800 main 59 59 __________O___ -1 25.5000 120.800 4 12 350
1917228N16128 1917 34 WP MM NOT_NAMED 1917-08-19 12:00:00 NR 26.0008 120.714 main 89 60 __________P___ -1 26.0008 120.714 4 10 354
1917228N16128 1917 34 WP MM NOT_NAMED 1917-08-19 15:00:00 NR 26.4822 120.681 main 60 29 __________P___ -1 26.4822 120.681 4 10 359
1917228N16128 1917 34 WP MM NOT_NAMED 1917-08-19 18:00:00 NR 26.9976 120.708 main 29 9 __________P___ -1 26.9976 120.708 4 11 5
1917228N16128 1917 34 WP MM NOT_NAMED 1917-08-19 21:00:00 NR 27.6000 120.800 main 9 0 __________O___ -1 27.6000 120.800 4 14 10
1917228N16128 1917 34 WP MM NOT_NAMED 1917-08-20 00:00:00 NR 28.3652 120.982 main 0 0 __________P___ -1 28.3652 120.982 4 17 13
1917228N16128 1917 34 WP MM NOT_NAMED 1917-08-20 03:00:00 NR 29.2184 121.223 main 0 0 __________P___ -1 29.2184 121.223 4 18 14
1917228N16128 1917 34 WP MM NOT_NAMED 1917-08-20 06:00:00 NR 30.1123 121.478 main 0 0 __________P___ -1 30.1123 121.478 4 18 13
1917228N16128 1917 34 WP MM NOT_NAMED 1917-08-20 09:00:00 NR 31.0000 121.700 main 0 0 __________O___ -1 31.0000 121.700 4 18 11
1917228N16128 1917 34 WP MM NOT_NAMED 1917-08-20 12:00:00 NR 31.8626 121.859 main 14 14 __________P___ -1 31.8626 121.859 4 17 8
1917228N16128 1917 34 WP MM NOT_NAMED 1917-08-20 15:00:00 NR 32.7043 121.969 main 65 65 __________P___ -1 32.7043 121.969 4 16 5
1917228N16128 1917 34 WP MM NOT_NAMED 1917-08-20 18:00:00 NR 33.4939 122.021 main 122 122 __________P___ -1 33.4939 122.021 4 15 0
1917228N16128 1917 34 WP MM NOT_NAMED 1917-08-20 21:00:00 NR 34.2000 122.000 main 148 148 __________O___ -1 34.2000 122.000 4 13 358
1917228N16128 1917 34 WP MM NOT_NAMED 1917-08-21 00:00:00 NR 34.8016 121.950 main 156 133 __________P___ -1 34.8016 121.950 4 11 353
1917228N16128 1917 34 WP MM NOT_NAMED 1917-08-21 03:00:00 NR 35.3185 121.822 main 133 87 __________P___ -1 35.3185 121.822 4 10 344
1917228N16128 1917 34 WP MM NOT_NAMED 1917-08-21 06:00:00 NR 35.7763 121.608 main 87 42 __________P___ -1 35.7763 121.608 4 10 334
1917228N16128 1917 34 WP MM NOT_NAMED 1917-08-21 09:00:00 NR 36.2000 121.300 main 42 0 __________O___ -1 36.2000 121.300 7 11 327
1917228N16128 1917 34 WP MM NOT_NAMED 1917-08-21 12:00:00 NR 36.6745 120.884 main 0 0 __________P___ -1 36.6745 120.884 7 12 321
1917228N16128 1917 34 WP MM NOT_NAMED 1917-08-21 15:00:00 NR 37.1140 120.379 main 0 0 __________P___ -1 37.1140 120.379 7 12 314
1917228N16128 1917 34 WP MM NOT_NAMED 1917-08-21 18:00:00 NR 37.4963 119.834 main 11 11 __________P___ -1 37.4963 119.834 7 11 309
1917228N16128 1917 34 WP MM NOT_NAMED 1917-08-21 21:00:00 NR 37.8000 119.300 main 20 0 __________O___ -1 37.8000 119.300 7 9 305
1917228N16128 1917 34 WP MM NOT_NAMED 1917-08-22 00:00:00 NR 38.0183 118.887 main 0 0 __________P___ -1 38.0183 118.887 7 7 299
1917228N16128 1917 34 WP MM NOT_NAMED 1917-08-22 03:00:00 NR 38.1596 118.492 main 14 14 __________P___ -1 38.1596 118.492 7 7 290
1917228N16128 1917 34 WP MM NOT_NAMED 1917-08-22 06:00:00 NR 38.2462 118.076 main 14 0 __________P___ -1 38.2462 118.076 7 7 281
1917228N16128 1917 34 WP MM NOT_NAMED 1917-08-22 09:00:00 NR 38.3000 117.600 main 0 0 __________O___ -1 38.3000 117.600 7 8 276
1917228N16128 1917 34 WP MM NOT_NAMED 1917-08-22 12:00:00 NR 38.3389 117.036 main 0 0 __________P___ -1 38.3389 117.036 7 9 274
1917228N16128 1917 34 WP MM NOT_NAMED 1917-08-22 15:00:00 NR 38.3675 116.399 main 0 0 __________P___ -1 38.3675 116.399 7 10 273
1917228N16128 1917 34 WP MM NOT_NAMED 1917-08-22 18:00:00 NR 38.3872 115.712 main 0 0 __________P___ -1 38.3872 115.712 7 11 272
1917228N16128 1917 34 WP MM NOT_NAMED 1917-08-22 21:00:00 NR 38.4000 115.000 main 0 __________O___ -1 38.4000 115.000 7 11 271

デジタル台風データ・検索

IBTrACS Databaseについて

本データベースは、米国NOAAが公開する1842年以降の世界の熱帯低気圧のベストトラックデータアーカイブInternational Best Track Archive for Climate Stewardship (IBTrACS)を、ウェブで閲覧しやすい形式に変換したものです。

最終更新日:2021-11-26